Howard, South Dakota
Current Conditions -  °F | °C
As of 7:55 PM on Monday 20 Oct 2014 (Local Time) from KMDS Reporting Station
Clear Clear  
Wind Chill: 54°   Ceiling: Unl
Heat Index: 54°   Visibility: 9mi
Dew Point: 36°   Wind: 3mph
Humidity: 51%   Direction: 30°NNE
Pressure: 30.04"   Gusts: NA
Location:  44.01°N, 97.53°W
Report Text: KMDS 210055Z AUTO 03003KT 9SM CLR 12/02 A3004 RMK AO2
Loading
Personal Weather Stations






























Interactive Weather Map
Tropical Storm Tracking
New forecast layout! Learn more

10-Day Weather Forecast

Advertisements
Track Severe Weather on mobile